Violet, Louisiana
Current Conditions -  °F | °C
As of 6:55 AM on Saturday 25 Oct 2014 (Local Time) from KNBG Reporting Station
Light Fog Light Fog  
Wind Chill: 50°   Ceiling: Unl
Heat Index: 50°   Visibility: 7mi
Dew Point: 47°   Wind: 0mph
Humidity: 89%   Direction: NA
Pressure: 30.12"   Gusts: NA
Location:  29.9°N, 89.9°W
Report Text: KNBG 251155Z 00000KT 7SM MIFG FEW250 10/08 A3012 RMK AO2 SLP199 T01000083 10111 20094 51012 $
Loading
Personal Weather Stations






























Interactive Weather Map
Tropical Storm Tracking
New forecast layout! Learn more

10-Day Weather Forecast

Advertisements
Track Severe Weather on mobile